sensor_id;sensor_type;location;lat;lon;timestamp;P1;durP1;ratioP1;P2;durP2;ratioP2
20567;SDS011;10442;49.932;11.592;2023-04-03T00:00:55;1.57;;;1.47;;
20567;SDS011;10442;49.932;11.592;2023-04-03T00:03:23;2.20;;;1.80;;
20567;SDS011;10442;49.932;11.592;2023-04-03T00:05:51;2.43;;;1.87;;
20567;SDS011;10442;49.932;11.592;2023-04-03T00:08:19;1.63;;;1.53;;
20567;SDS011;10442;49.932;11.592;2023-04-03T00:10:47;4.20;;;2.17;;
20567;SDS011;10442;49.932;11.592;2023-04-03T00:13:15;1.63;;;1.53;;
20567;SDS011;10442;49.932;11.592;2023-04-03T00:15:42;2.00;;;1.57;;
20567;SDS011;10442;49.932;11.592;2023-04-03T00:18:10;3.63;;;1.63;;
20567;SDS011;10442;49.932;11.592;2023-04-03T00:20:38;1.87;;;1.67;;
20567;SDS011;10442;49.932;11.592;2023-04-03T00:23:05;3.03;;;2.43;;
20567;SDS011;10442;49.932;11.592;2023-04-03T00:25:33;3.37;;;2.33;;
20567;SDS011;10442;49.932;11.592;2023-04-03T00:28:02;2.53;;;2.13;;
20567;SDS011;10442;49.932;11.592;2023-04-03T00:30:30;2.33;;;1.80;;
20567;SDS011;10442;49.932;11.592;2023-04-03T00:32:59;2.80;;;2.13;;
20567;SDS011;10442;49.932;11.592;2023-04-03T00:35:28;2.37;;;2.00;;
20567;SDS011;10442;49.932;11.592;2023-04-03T00:37:55;2.03;;;1.70;;
20567;SDS011;10442;49.932;11.592;2023-04-03T00:40:25;2.30;;;2.10;;
20567;SDS011;10442;49.932;11.592;2023-04-03T00:42:57;4.63;;;2.63;;
20567;SDS011;10442;49.932;11.592;2023-04-03T00:45:47;5.60;;;2.77;;
20567;SDS011;10442;49.932;11.592;2023-04-03T00:48:20;2.57;;;2.00;;
20567;SDS011;10442;49.932;11.592;2023-04-03T00:50:51;3.47;;;2.80;;
20567;SDS011;10442;49.932;11.592;2023-04-03T00:53:24;3.90;;;2.20;;
20567;SDS011;10442;49.932;11.592;2023-04-03T00:55:56;2.57;;;2.37;;
20567;SDS011;10442;49.932;11.592;2023-04-03T00:58:31;2.53;;;2.10;;
20567;SDS011;10442;49.932;11.592;2023-04-03T01:01:05;3.50;;;2.00;;
20567;SDS011;10442;49.932;11.592;2023-04-03T01:03:37;7.50;;;2.27;;
20567;SDS011;10442;49.932;11.592;2023-04-03T01:06:05;5.00;;;2.50;;
20567;SDS011;10442;49.932;11.592;2023-04-03T01:08:32;2.77;;;2.03;;
20567;SDS011;10442;49.932;11.592;2023-04-03T01:11:00;3.00;;;2.43;;
20567;SDS011;10442;49.932;11.592;2023-04-03T01:13:29;2.63;;;2.20;;
20567;SDS011;10442;49.932;11.592;2023-04-03T01:16:00;3.60;;;2.33;;
20567;SDS011;10442;49.932;11.592;2023-04-03T01:18:29;2.50;;;2.30;;
20567;SDS011;10442;49.932;11.592;2023-04-03T01:26:18;3.27;;;2.63;;
20567;SDS011;10442;49.932;11.592;2023-04-03T01:28:45;4.43;;;3.07;;
20567;SDS011;10442;49.932;11.592;2023-04-03T01:31:25;2.70;;;2.50;;
20567;SDS011;10442;49.932;11.592;2023-04-03T01:34:11;4.43;;;2.73;;
20567;SDS011;10442;49.932;11.592;2023-04-03T01:36:38;6.67;;;3.40;;
20567;SDS011;10442;49.932;11.592;2023-04-03T01:39:06;2.80;;;2.60;;
20567;SDS011;10442;49.932;11.592;2023-04-03T01:41:34;2.93;;;2.57;;
20567;SDS011;10442;49.932;11.592;2023-04-03T01:44:09;3.47;;;3.03;;
20567;SDS011;10442;49.932;11.592;2023-04-03T01:46:37;6.93;;;2.83;;
20567;SDS011;10442;49.932;11.592;2023-04-03T01:49:04;3.53;;;2.87;;
20567;SDS011;10442;49.932;11.592;2023-04-03T01:51:32;3.37;;;3.10;;
20567;SDS011;10442;49.932;11.592;2023-04-03T01:54:00;3.17;;;2.63;;
20567;SDS011;10442;49.932;11.592;2023-04-03T01:56:27;3.80;;;2.80;;
20567;SDS011;10442;49.932;11.592;2023-04-03T01:58:55;3.67;;;2.90;;
20567;SDS011;10442;49.932;11.592;2023-04-03T02:01:22;4.80;;;2.97;;
20567;SDS011;10442;49.932;11.592;2023-04-03T02:03:50;3.40;;;2.73;;
20567;SDS011;10442;49.932;11.592;2023-04-03T02:06:17;3.17;;;2.70;;
20567;SDS011;10442;49.932;11.592;2023-04-03T02:08:44;4.30;;;3.33;;
20567;SDS011;10442;49.932;11.592;2023-04-03T02:11:12;5.23;;;3.17;;
20567;SDS011;10442;49.932;11.592;2023-04-03T02:13:39;3.97;;;2.87;;
20567;SDS011;10442;49.932;11.592;2023-04-03T02:16:07;6.83;;;2.83;;
20567;SDS011;10442;49.932;11.592;2023-04-03T02:18:37;2.90;;;2.60;;
20567;SDS011;10442;49.932;11.592;2023-04-03T02:21:05;4.63;;;3.40;;
20567;SDS011;10442;49.932;11.592;2023-04-03T02:23:32;3.53;;;2.80;;
20567;SDS011;10442;49.932;11.592;2023-04-03T02:26:18;4.50;;;2.63;;
20567;SDS011;10442;49.932;11.592;2023-04-03T02:28:46;5.60;;;3.53;;
20567;SDS011;10442;49.932;11.592;2023-04-03T02:31:14;3.37;;;2.77;;
20567;SDS011;10442;49.932;11.592;2023-04-03T02:33:43;4.07;;;3.60;;
20567;SDS011;10442;49.932;11.592;2023-04-03T02:36:13;2.77;;;2.57;;
20567;SDS011;10442;49.932;11.592;2023-04-03T02:38:43;3.83;;;2.63;;
20567;SDS011;10442;49.932;11.592;2023-04-03T02:41:11;6.13;;;2.60;;
20567;SDS011;10442;49.932;11.592;2023-04-03T02:43:39;3.23;;;2.50;;
20567;SDS011;10442;49.932;11.592;2023-04-03T02:46:07;3.67;;;2.73;;
20567;SDS011;10442;49.932;11.592;2023-04-03T02:48:35;6.13;;;3.50;;
20567;SDS011;10442;49.932;11.592;2023-04-03T02:51:03;3.50;;;3.00;;
20567;SDS011;10442;49.932;11.592;2023-04-03T02:53:31;2.90;;;2.37;;
20567;SDS011;10442;49.932;11.592;2023-04-03T02:56:03;5.17;;;3.37;;
20567;SDS011;10442;49.932;11.592;2023-04-03T02:58:31;4.37;;;2.57;;
20567;SDS011;10442;49.932;11.592;2023-04-03T03:00:59;5.13;;;2.97;;
20567;SDS011;10442;49.932;11.592;2023-04-03T03:03:26;7.10;;;4.03;;
20567;SDS011;10442;49.932;11.592;2023-04-03T03:06:03;7.30;;;3.23;;
20567;SDS011;10442;49.932;11.592;2023-04-03T03:08:39;4.07;;;2.53;;
20567;SDS011;10442;49.932;11.592;2023-04-03T03:11:07;3.90;;;2.70;;
20567;SDS011;10442;49.932;11.592;2023-04-03T03:13:35;2.87;;;2.53;;
20567;SDS011;10442;49.932;11.592;2023-04-03T03:16:02;4.33;;;2.50;;
20567;SDS011;10442;49.932;11.592;2023-04-03T03:18:30;4.83;;;2.60;;
20567;SDS011;10442;49.932;11.592;2023-04-03T03:20:59;2.90;;;2.57;;
20567;SDS011;10442;49.932;11.592;2023-04-03T03:23:28;4.33;;;2.60;;
20567;SDS011;10442;49.932;11.592;2023-04-03T03:26:07;5.47;;;3.20;;
20567;SDS011;10442;49.932;11.592;2023-04-03T03:28:37;2.73;;;2.53;;
20567;SDS011;10442;49.932;11.592;2023-04-03T03:31:06;3.43;;;2.00;;
20567;SDS011;10442;49.932;11.592;2023-04-03T03:33:37;5.43;;;2.43;;
20567;SDS011;10442;49.932;11.592;2023-04-03T03:36:04;5.13;;;2.37;;
20567;SDS011;10442;49.932;11.592;2023-04-03T03:38:32;4.70;;;2.80;;
20567;SDS011;10442;49.932;11.592;2023-04-03T03:41:00;3.73;;;3.30;;
20567;SDS011;10442;49.932;11.592;2023-04-03T03:43:29;4.53;;;1.93;;
20567;SDS011;10442;49.932;11.592;2023-04-03T03:45:56;4.13;;;2.70;;
20567;SDS011;10442;49.932;11.592;2023-04-03T03:48:25;3.13;;;2.23;;
20567;SDS011;10442;49.932;11.592;2023-04-03T03:50:53;4.33;;;3.77;;
20567;SDS011;10442;49.932;11.592;2023-04-03T03:53:24;2.93;;;2.03;;
20567;SDS011;10442;49.932;11.592;2023-04-03T03:55:55;3.30;;;2.50;;
20567;SDS011;10442;49.932;11.592;2023-04-03T03:58:25;2.77;;;2.33;;
20567;SDS011;10442;49.932;11.592;2023-04-03T04:00:52;3.20;;;1.93;;
20567;SDS011;10442;49.932;11.592;2023-04-03T04:03:20;3.37;;;2.40;;
20567;SDS011;10442;49.932;11.592;2023-04-03T04:05:49;3.83;;;2.90;;
20567;SDS011;10442;49.932;11.592;2023-04-03T04:08:17;2.70;;;2.47;;
20567;SDS011;10442;49.932;11.592;2023-04-03T04:10:46;3.20;;;2.50;;
20567;SDS011;10442;49.932;11.592;2023-04-03T04:13:15;9.17;;;3.00;;
20567;SDS011;10442;49.932;11.592;2023-04-03T04:15:44;8.53;;;3.07;;
20567;SDS011;10442;49.932;11.592;2023-04-03T04:18:12;6.20;;;2.60;;
20567;SDS011;10442;49.932;11.592;2023-04-03T04:20:44;3.17;;;2.87;;
20567;SDS011;10442;49.932;11.592;2023-04-03T04:23:13;8.03;;;3.43;;
20567;SDS011;10442;49.932;11.592;2023-04-03T04:25:41;3.87;;;2.87;;
20567;SDS011;10442;49.932;11.592;2023-04-03T04:28:12;3.93;;;3.10;;
20567;SDS011;10442;49.932;11.592;2023-04-03T04:30:39;4.53;;;3.40;;
20567;SDS011;10442;49.932;11.592;2023-04-03T04:33:08;3.43;;;3.13;;
20567;SDS011;10442;49.932;11.592;2023-04-03T04:35:36;6.60;;;3.63;;
20567;SDS011;10442;49.932;11.592;2023-04-03T04:38:04;6.67;;;3.07;;
20567;SDS011;10442;49.932;11.592;2023-04-03T04:40:32;4.10;;;3.63;;
20567;SDS011;10442;49.932;11.592;2023-04-03T04:42:59;4.43;;;3.40;;
20567;SDS011;10442;49.932;11.592;2023-04-03T04:45:27;4.27;;;3.23;;
20567;SDS011;10442;49.932;11.592;2023-04-03T04:47:55;3.60;;;3.30;;
20567;SDS011;10442;49.932;11.592;2023-04-03T04:50:24;6.80;;;3.67;;
20567;SDS011;10442;49.932;11.592;2023-04-03T04:52:53;3.83;;;3.33;;
20567;SDS011;10442;49.932;11.592;2023-04-03T04:55:20;3.33;;;3.03;;
20567;SDS011;10442;49.932;11.592;2023-04-03T04:57:49;5.00;;;4.30;;
20567;SDS011;10442;49.932;11.592;2023-04-03T05:00:17;5.73;;;4.17;;
20567;SDS011;10442;49.932;11.592;2023-04-03T05:02:45;6.90;;;3.93;;
20567;SDS011;10442;49.932;11.592;2023-04-03T05:05:12;4.27;;;3.10;;
20567;SDS011;10442;49.932;11.592;2023-04-03T05:07:40;8.07;;;3.20;;
20567;SDS011;10442;49.932;11.592;2023-04-03T05:10:08;4.67;;;3.43;;
20567;SDS011;10442;49.932;11.592;2023-04-03T05:12:36;4.40;;;4.00;;
20567;SDS011;10442;49.932;11.592;2023-04-03T05:15:04;3.73;;;3.43;;
20567;SDS011;10442;49.932;11.592;2023-04-03T05:17:33;5.03;;;3.93;;
20567;SDS011;10442;49.932;11.592;2023-04-03T05:20:02;6.20;;;4.17;;
20567;SDS011;10442;49.932;11.592;2023-04-03T05:22:31;6.37;;;4.33;;
20567;SDS011;10442;49.932;11.592;2023-04-03T05:25:04;5.83;;;3.70;;
20567;SDS011;10442;49.932;11.592;2023-04-03T05:27:32;4.70;;;4.30;;
20567;SDS011;10442;49.932;11.592;2023-04-03T05:30:01;5.80;;;4.07;;
20567;SDS011;10442;49.932;11.592;2023-04-03T05:32:31;6.23;;;3.53;;
20567;SDS011;10442;49.932;11.592;2023-04-03T05:35:21;4.13;;;3.40;;
20567;SDS011;10442;49.932;11.592;2023-04-03T05:37:54;4.13;;;3.77;;
20567;SDS011;10442;49.932;11.592;2023-04-03T05:40:22;4.20;;;3.80;;
20567;SDS011;10442;49.932;11.592;2023-04-03T05:42:53;4.97;;;4.07;;
20567;SDS011;10442;49.932;11.592;2023-04-03T05:45:23;6.23;;;3.93;;
20567;SDS011;10442;49.932;11.592;2023-04-03T05:47:51;8.73;;;4.38;;
20567;SDS011;10442;49.932;11.592;2023-04-03T05:50:18;3.78;;;3.50;;
20567;SDS011;10442;49.932;11.592;2023-04-03T05:52:49;4.03;;;3.25;;
20567;SDS011;10442;49.932;11.592;2023-04-03T05:55:19;3.53;;;2.85;;
20567;SDS011;10442;49.932;11.592;2023-04-03T05:57:47;3.40;;;2.92;;
20567;SDS011;10442;49.932;11.592;2023-04-03T06:00:15;3.50;;;3.15;;
20567;SDS011;10442;49.932;11.592;2023-04-03T06:02:49;8.55;;;4.25;;
20567;SDS011;10442;49.932;11.592;2023-04-03T06:05:21;3.30;;;2.97;;
20567;SDS011;10442;49.932;11.592;2023-04-03T06:07:50;3.28;;;2.90;;
20567;SDS011;10442;49.932;11.592;2023-04-03T06:10:17;4.28;;;3.42;;
20567;SDS011;10442;49.932;11.592;2023-04-03T06:12:45;5.57;;;3.22;;
20567;SDS011;10442;49.932;11.592;2023-04-03T06:15:12;3.10;;;2.90;;
20567;SDS011;10442;49.932;11.592;2023-04-03T06:17:40;3.80;;;2.78;;
20567;SDS011;10442;49.932;11.592;2023-04-03T06:20:08;5.32;;;3.60;;
20567;SDS011;10442;49.932;11.592;2023-04-03T06:22:36;3.10;;;2.80;;
20567;SDS011;10442;49.932;11.592;2023-04-03T06:25:04;2.83;;;2.58;;
20567;SDS011;10442;49.932;11.592;2023-04-03T06:27:33;4.07;;;3.15;;
20567;SDS011;10442;49.932;11.592;2023-04-03T06:30:00;3.25;;;2.38;;
20567;SDS011;10442;49.932;11.592;2023-04-03T06:32:28;4.35;;;3.08;;
20567;SDS011;10442;49.932;11.592;2023-04-03T06:34:55;4.55;;;3.10;;
20567;SDS011;10442;49.932;11.592;2023-04-03T06:37:24;3.35;;;2.85;;
20567;SDS011;10442;49.932;11.592;2023-04-03T06:39:55;3.67;;;2.95;;
20567;SDS011;10442;49.932;11.592;2023-04-03T06:42:23;7.03;;;3.47;;
20567;SDS011;10442;49.932;11.592;2023-04-03T06:44:58;4.65;;;3.22;;
20567;SDS011;10442;49.932;11.592;2023-04-03T06:47:25;3.53;;;3.22;;
20567;SDS011;10442;49.932;11.592;2023-04-03T06:49:53;8.75;;;7.90;;
20567;SDS011;10442;49.932;11.592;2023-04-03T06:52:20;8.15;;;6.80;;
20567;SDS011;10442;49.932;11.592;2023-04-03T06:54:47;4.38;;;3.50;;
20567;SDS011;10442;49.932;11.592;2023-04-03T06:57:15;3.20;;;2.60;;
20567;SDS011;10442;49.932;11.592;2023-04-03T06:59:42;3.05;;;2.85;;
20567;SDS011;10442;49.932;11.592;2023-04-03T07:02:11;3.90;;;3.35;;
20567;SDS011;10442;49.932;11.592;2023-04-03T07:04:39;3.75;;;3.25;;
20567;SDS011;10442;49.932;11.592;2023-04-03T07:07:06;5.88;;;3.58;;
20567;SDS011;10442;49.932;11.592;2023-04-03T07:09:34;3.45;;;3.05;;
20567;SDS011;10442;49.932;11.592;2023-04-03T07:12:01;4.82;;;2.95;;
20567;SDS011;10442;49.932;11.592;2023-04-03T07:14:29;3.92;;;2.92;;
20567;SDS011;10442;49.932;11.592;2023-04-03T07:16:56;3.75;;;3.40;;
20567;SDS011;10442;49.932;11.592;2023-04-03T07:19:24;5.18;;;3.15;;
20567;SDS011;10442;49.932;11.592;2023-04-03T07:21:54;3.47;;;3.28;;
20567;SDS011;10442;49.932;11.592;2023-04-03T07:24:22;3.30;;;3.10;;
20567;SDS011;10442;49.932;11.592;2023-04-03T07:26:50;4.72;;;2.95;;
20567;SDS011;10442;49.932;11.592;2023-04-03T07:29:19;3.08;;;2.75;;
20567;SDS011;10442;49.932;11.592;2023-04-03T07:31:48;5.15;;;3.85;;
20567;SDS011;10442;49.932;11.592;2023-04-03T07:34:16;3.92;;;3.55;;
20567;SDS011;10442;49.932;11.592;2023-04-03T07:36:43;3.17;;;2.80;;
20567;SDS011;10442;49.932;11.592;2023-04-03T07:39:11;4.25;;;3.55;;
20567;SDS011;10442;49.932;11.592;2023-04-03T07:41:38;4.38;;;3.47;;
20567;SDS011;10442;49.932;11.592;2023-04-03T07:44:06;3.35;;;3.10;;
20567;SDS011;10442;49.932;11.592;2023-04-03T07:46:36;3.97;;;3.67;;
20567;SDS011;10442;49.932;11.592;2023-04-03T07:49:05;3.30;;;3.00;;
20567;SDS011;10442;49.932;11.592;2023-04-03T07:51:33;4.82;;;2.95;;
20567;SDS011;10442;49.932;11.592;2023-04-03T07:54:00;3.20;;;2.88;;
20567;SDS011;10442;49.932;11.592;2023-04-03T07:56:28;3.65;;;3.33;;
20567;SDS011;10442;49.932;11.592;2023-04-03T07:58:55;4.65;;;3.70;;
20567;SDS011;10442;49.932;11.592;2023-04-03T08:01:23;3.17;;;2.65;;
20567;SDS011;10442;49.932;11.592;2023-04-03T08:03:50;3.50;;;2.67;;
20567;SDS011;10442;49.932;11.592;2023-04-03T08:06:18;3.97;;;2.58;;
20567;SDS011;10442;49.932;11.592;2023-04-03T08:08:59;4.60;;;3.53;;
20567;SDS011;10442;49.932;11.592;2023-04-03T08:11:26;5.45;;;2.80;;
20567;SDS011;10442;49.932;11.592;2023-04-03T08:13:54;3.00;;;2.75;;
20567;SDS011;10442;49.932;11.592;2023-04-03T08:16:23;3.10;;;2.80;;
20567;SDS011;10442;49.932;11.592;2023-04-03T08:18:54;2.75;;;2.55;;
20567;SDS011;10442;49.932;11.592;2023-04-03T08:21:22;3.00;;;2.70;;
20567;SDS011;10442;49.932;11.592;2023-04-03T08:23:49;3.33;;;3.03;;
20567;SDS011;10442;49.932;11.592;2023-04-03T08:26:19;4.72;;;4.00;;
20567;SDS011;10442;49.932;11.592;2023-04-03T08:28:48;4.00;;;3.70;;
20567;SDS011;10442;49.932;11.592;2023-04-03T08:31:17;3.70;;;3.30;;
20567;SDS011;10442;49.932;11.592;2023-04-03T08:33:46;3.47;;;2.97;;
20567;SDS011;10442;49.932;11.592;2023-04-03T08:38:46;2.55;;;2.33;;
20567;SDS011;10442;49.932;11.592;2023-04-03T08:41:16;2.45;;;2.08;;
20567;SDS011;10442;49.932;11.592;2023-04-03T08:46:59;2.60;;;2.40;;
20567;SDS011;10442;49.932;11.592;2023-04-03T08:49:47;3.00;;;2.72;;
20567;SDS011;10442;49.932;11.592;2023-04-03T08:52:30;3.33;;;2.25;;
20567;SDS011;10442;49.932;11.592;2023-04-03T08:55:07;3.83;;;3.13;;
20567;SDS011;10442;49.932;11.592;2023-04-03T08:57:45;4.30;;;2.45;;
20567;SDS011;10442;49.932;11.592;2023-04-03T09:00:17;2.35;;;2.15;;
20567;SDS011;10442;49.932;11.592;2023-04-03T09:02:53;4.78;;;2.15;;
20567;SDS011;10442;49.932;11.592;2023-04-03T09:05:32;2.50;;;2.28;;
20567;SDS011;10442;49.932;11.592;2023-04-03T09:08:14;2.22;;;2.05;;
20567;SDS011;10442;49.932;11.592;2023-04-03T09:10:45;2.92;;;2.22;;
20567;SDS011;10442;49.932;11.592;2023-04-03T09:13:28;2.35;;;2.13;;
20567;SDS011;10442;49.932;11.592;2023-04-03T09:16:35;3.00;;;2.40;;
20567;SDS011;10442;49.932;11.592;2023-04-03T09:22:20;8.02;;;2.70;;
20567;SDS011;10442;49.932;11.592;2023-04-03T09:27:45;2.13;;;1.77;;
20567;SDS011;10442;49.932;11.592;2023-04-03T09:30:16;3.53;;;2.50;;
20567;SDS011;10442;49.932;11.592;2023-04-03T09:32:46;4.05;;;2.67;;
20567;SDS011;10442;49.932;11.592;2023-04-03T09:35:25;3.75;;;2.20;;
20567;SDS011;10442;49.932;11.592;2023-04-03T09:43:19;2.17;;;2.00;;
20567;SDS011;10442;49.932;11.592;2023-04-03T09:45:49;3.15;;;2.45;;
20567;SDS011;10442;49.932;11.592;2023-04-03T09:48:20;2.92;;;2.00;;
20567;SDS011;10442;49.932;11.592;2023-04-03T09:53:29;2.83;;;2.13;;
20567;SDS011;10442;49.932;11.592;2023-04-03T09:55:58;1.95;;;1.75;;
20567;SDS011;10442;49.932;11.592;2023-04-03T09:58:27;2.95;;;2.17;;
20567;SDS011;10442;49.932;11.592;2023-04-03T10:04:02;4.85;;;2.13;;
20567;SDS011;10442;49.932;11.592;2023-04-03T10:06:35;3.00;;;2.15;;
20567;SDS011;10442;49.932;11.592;2023-04-03T10:09:06;1.92;;;1.50;;
20567;SDS011;10442;49.932;11.592;2023-04-03T10:11:56;2.20;;;1.90;;
20567;SDS011;10442;49.932;11.592;2023-04-03T10:14:24;1.90;;;1.80;;
20567;SDS011;10442;49.932;11.592;2023-04-03T10:19:56;4.45;;;2.45;;
20567;SDS011;10442;49.932;11.592;2023-04-03T10:22:34;2.80;;;1.60;;
20567;SDS011;10442;49.932;11.592;2023-04-03T10:25:28;3.13;;;2.30;;
20567;SDS011;10442;49.932;11.592;2023-04-03T10:28:00;7.47;;;6.05;;
20567;SDS011;10442;49.932;11.592;2023-04-03T10:36:36;2.88;;;2.33;;
20567;SDS011;10442;49.932;11.592;2023-04-03T10:39:14;3.45;;;2.17;;
20567;SDS011;10442;49.932;11.592;2023-04-03T10:44:52;5.07;;;2.10;;
20567;SDS011;10442;49.932;11.592;2023-04-03T10:50:36;2.60;;;2.40;;
20567;SDS011;10442;49.932;11.592;2023-04-03T10:53:08;2.28;;;2.05;;
20567;SDS011;10442;49.932;11.592;2023-04-03T10:55:57;3.22;;;2.78;;
20567;SDS011;10442;49.932;11.592;2023-04-03T10:58:41;3.35;;;2.83;;
20567;SDS011;10442;49.932;11.592;2023-04-03T11:01:13;2.67;;;2.47;;
20567;SDS011;10442;49.932;11.592;2023-04-03T11:03:46;2.42;;;2.03;;
20567;SDS011;10442;49.932;11.592;2023-04-03T11:06:19;3.15;;;1.85;;
20567;SDS011;10442;49.932;11.592;2023-04-03T11:08:51;1.98;;;1.88;;
20567;SDS011;10442;49.932;11.592;2023-04-03T11:11:27;1.88;;;1.77;;
20567;SDS011;10442;49.932;11.592;2023-04-03T11:14:03;7.30;;;2.33;;
20567;SDS011;10442;49.932;11.592;2023-04-03T11:16:52;2.72;;;1.80;;
20567;SDS011;10442;49.932;11.592;2023-04-03T11:19:36;2.72;;;2.30;;
20567;SDS011;10442;49.932;11.592;2023-04-03T11:22:22;4.03;;;2.50;;
20567;SDS011;10442;49.932;11.592;2023-04-03T11:24:59;3.38;;;2.47;;
20567;SDS011;10442;49.932;11.592;2023-04-03T11:27:44;2.05;;;1.75;;
20567;SDS011;10442;49.932;11.592;2023-04-03T11:30:20;2.13;;;1.63;;
20567;SDS011;10442;49.932;11.592;2023-04-03T11:35:51;3.40;;;2.30;;
20567;SDS011;10442;49.932;11.592;2023-04-03T11:38:22;2.13;;;1.90;;
20567;SDS011;10442;49.932;11.592;2023-04-03T11:40:54;2.20;;;2.00;;
20567;SDS011;10442;49.932;11.592;2023-04-03T11:43:25;3.50;;;2.13;;
20567;SDS011;10442;49.932;11.592;2023-04-03T11:45:57;2.00;;;1.60;;
20567;SDS011;10442;49.932;11.592;2023-04-03T11:50:59;4.18;;;2.55;;
20567;SDS011;10442;49.932;11.592;2023-04-03T11:53:28;4.33;;;2.10;;
20567;SDS011;10442;49.932;11.592;2023-04-03T11:56:02;2.40;;;1.63;;
20567;SDS011;10442;49.932;11.592;2023-04-03T11:59:32;2.30;;;1.83;;
20567;SDS011;10442;49.932;11.592;2023-04-03T12:04:15;6.72;;;1.83;;
20567;SDS011;10442;49.932;11.592;2023-04-03T12:09:22;1.90;;;1.77;;
20567;SDS011;10442;49.932;11.592;2023-04-03T12:11:50;2.47;;;2.28;;
20567;SDS011;10442;49.932;11.592;2023-04-03T12:14:20;2.65;;;1.83;;
20567;SDS011;10442;49.932;11.592;2023-04-03T12:16:52;3.70;;;2.60;;
20567;SDS011;10442;49.932;11.592;2023-04-03T12:22:09;4.10;;;2.43;;
20567;SDS011;10442;49.932;11.592;2023-04-03T12:24:40;2.40;;;2.20;;
20567;SDS011;10442;49.932;11.592;2023-04-03T12:35:05;2.93;;;2.27;;
20567;SDS011;10442;49.932;11.592;2023-04-03T12:48:17;2.20;;;1.90;;
20567;SDS011;10442;49.932;11.592;2023-04-03T12:50:49;2.75;;;2.20;;
20567;SDS011;10442;49.932;11.592;2023-04-03T12:53:24;2.85;;;2.10;;
20567;SDS011;10442;49.932;11.592;2023-04-03T12:59:12;2.05;;;1.75;;
20567;SDS011;10442;49.932;11.592;2023-04-03T13:01:56;3.38;;;2.00;;
20567;SDS011;10442;49.932;11.592;2023-04-03T13:04:25;4.20;;;2.07;;
20567;SDS011;10442;49.932;11.592;2023-04-03T13:06:54;2.28;;;1.77;;
20567;SDS011;10442;49.932;11.592;2023-04-03T13:09:26;2.70;;;2.40;;
20567;SDS011;10442;49.932;11.592;2023-04-03T13:14:30;2.28;;;1.67;;
20567;SDS011;10442;49.932;11.592;2023-04-03T13:17:03;2.00;;;1.90;;
20567;SDS011;10442;49.932;11.592;2023-04-03T13:19:37;2.25;;;2.08;;
20567;SDS011;10442;49.932;11.592;2023-04-03T13:22:06;3.50;;;1.83;;
20567;SDS011;10442;49.932;11.592;2023-04-03T13:24:45;3.58;;;2.55;;
20567;SDS011;10442;49.932;11.592;2023-04-03T13:27:15;2.22;;;1.63;;
20567;SDS011;10442;49.932;11.592;2023-04-03T13:29:43;1.88;;;1.77;;
20567;SDS011;10442;49.932;11.592;2023-04-03T13:32:20;2.53;;;1.90;;
20567;SDS011;10442;49.932;11.592;2023-04-03T13:34:50;2.03;;;1.92;;
20567;SDS011;10442;49.932;11.592;2023-04-03T13:37:22;3.53;;;1.92;;
20567;SDS011;10442;49.932;11.592;2023-04-03T13:42:29;3.25;;;1.98;;
20567;SDS011;10442;49.932;11.592;2023-04-03T13:45:09;3.65;;;1.75;;
20567;SDS011;10442;49.932;11.592;2023-04-03T13:47:38;4.38;;;2.17;;
20567;SDS011;10442;49.932;11.592;2023-04-03T13:52:40;2.25;;;1.58;;
20567;SDS011;10442;49.932;11.592;2023-04-03T13:55:24;2.47;;;2.08;;
20567;SDS011;10442;49.932;11.592;2023-04-03T14:00:38;1.85;;;1.75;;
20567;SDS011;10442;49.932;11.592;2023-04-03T14:03:28;2.67;;;2.15;;
20567;SDS011;10442;49.932;11.592;2023-04-03T14:05:58;3.88;;;1.58;;
20567;SDS011;10442;49.932;11.592;2023-04-03T14:08:26;4.30;;;2.17;;
20567;SDS011;10442;49.932;11.592;2023-04-03T14:11:10;2.22;;;2.03;;
20567;SDS011;10442;49.932;11.592;2023-04-03T14:13:43;2.22;;;1.85;;
20567;SDS011;10442;49.932;11.592;2023-04-03T14:16:14;2.97;;;1.80;;
20567;SDS011;10442;49.932;11.592;2023-04-03T14:18:47;2.50;;;2.05;;
20567;SDS011;10442;49.932;11.592;2023-04-03T14:21:17;2.50;;;1.95;;
20567;SDS011;10442;49.932;11.592;2023-04-03T14:23:47;1.80;;;1.70;;
20567;SDS011;10442;49.932;11.592;2023-04-03T14:26:19;5.75;;;1.70;;
20567;SDS011;10442;49.932;11.592;2023-04-03T14:28:51;2.70;;;1.95;;
20567;SDS011;10442;49.932;11.592;2023-04-03T14:31:20;1.75;;;1.35;;
20567;SDS011;10442;49.932;11.592;2023-04-03T14:33:48;2.05;;;1.75;;
20567;SDS011;10442;49.932;11.592;2023-04-03T14:36:20;4.78;;;2.22;;
20567;SDS011;10442;49.932;11.592;2023-04-03T14:38:49;2.25;;;1.63;;
20567;SDS011;10442;49.932;11.592;2023-04-03T14:41:21;4.20;;;1.70;;
20567;SDS011;10442;49.932;11.592;2023-04-03T14:43:50;1.60;;;1.50;;
20567;SDS011;10442;49.932;11.592;2023-04-03T14:46:22;2.17;;;1.98;;
20567;SDS011;10442;49.932;11.592;2023-04-03T14:49:09;2.70;;;1.90;;
20567;SDS011;10442;49.932;11.592;2023-04-03T14:51:41;2.05;;;1.58;;
20567;SDS011;10442;49.932;11.592;2023-04-03T14:54:13;2.17;;;1.77;;
20567;SDS011;10442;49.932;11.592;2023-04-03T14:56:43;2.83;;;1.25;;
20567;SDS011;10442;49.932;11.592;2023-04-03T14:59:12;2.35;;;1.60;;
20567;SDS011;10442;49.932;11.592;2023-04-03T15:01:40;4.00;;;2.17;;
20567;SDS011;10442;49.932;11.592;2023-04-03T15:04:15;3.42;;;2.15;;
20567;SDS011;10442;49.932;11.592;2023-04-03T15:06:45;2.78;;;1.58;;
20567;SDS011;10442;49.932;11.592;2023-04-03T15:09:19;1.57;;;1.40;;
20567;SDS011;10442;49.932;11.592;2023-04-03T15:11:52;2.27;;;1.93;;
20567;SDS011;10442;49.932;11.592;2023-04-03T15:14:20;1.67;;;1.30;;
20567;SDS011;10442;49.932;11.592;2023-04-03T15:17:04;2.13;;;1.60;;
20567;SDS011;10442;49.932;11.592;2023-04-03T15:19:35;1.75;;;1.65;;
20567;SDS011;10442;49.932;11.592;2023-04-03T15:22:04;4.80;;;1.87;;
20567;SDS011;10442;49.932;11.592;2023-04-03T15:24:32;2.47;;;1.60;;
20567;SDS011;10442;49.932;11.592;2023-04-03T15:26:59;3.58;;;1.70;;
20567;SDS011;10442;49.932;11.592;2023-04-03T15:29:27;1.67;;;1.40;;
20567;SDS011;10442;49.932;11.592;2023-04-03T15:31:55;3.27;;;1.77;;
20567;SDS011;10442;49.932;11.592;2023-04-03T15:34:22;1.43;;;1.20;;
20567;SDS011;10442;49.932;11.592;2023-04-03T15:36:50;3.50;;;1.50;;
20567;SDS011;10442;49.932;11.592;2023-04-03T15:39:20;1.37;;;0.83;;
20567;SDS011;10442;49.932;11.592;2023-04-03T15:41:49;1.30;;;1.20;;
20567;SDS011;10442;49.932;11.592;2023-04-03T15:44:19;4.10;;;1.57;;
20567;SDS011;10442;49.932;11.592;2023-04-03T15:46:47;2.87;;;2.30;;
20567;SDS011;10442;49.932;11.592;2023-04-03T15:49:18;1.73;;;1.40;;
20567;SDS011;10442;49.932;11.592;2023-04-03T15:51:47;4.33;;;1.70;;
20567;SDS011;10442;49.932;11.592;2023-04-03T15:54:15;1.73;;;1.20;;
20567;SDS011;10442;49.932;11.592;2023-04-03T15:56:43;2.27;;;1.43;;
20567;SDS011;10442;49.932;11.592;2023-04-03T15:59:10;2.40;;;1.33;;
20567;SDS011;10442;49.932;11.592;2023-04-03T16:01:39;6.00;;;1.83;;
20567;SDS011;10442;49.932;11.592;2023-04-03T16:04:07;2.20;;;1.30;;
20567;SDS011;10442;49.932;11.592;2023-04-03T16:06:36;1.90;;;1.53;;
20567;SDS011;10442;49.932;11.592;2023-04-03T16:09:04;1.57;;;1.33;;
20567;SDS011;10442;49.932;11.592;2023-04-03T16:11:33;1.93;;;1.43;;
20567;SDS011;10442;49.932;11.592;2023-04-03T16:14:02;2.70;;;1.67;;
20567;SDS011;10442;49.932;11.592;2023-04-03T16:16:30;1.40;;;1.20;;
20567;SDS011;10442;49.932;11.592;2023-04-03T16:18:57;1.73;;;1.10;;
20567;SDS011;10442;49.932;11.592;2023-04-03T16:21:24;2.43;;;1.63;;
20567;SDS011;10442;49.932;11.592;2023-04-03T16:23:53;3.23;;;1.50;;